Time;durP1;ratioP1;P1;durP2;ratioP2;P2;SDS_P1;SDS_P2;PMS_P1;PMS_P2;Temp;Humidity;BMP_temperature;BMP_pressure;BME280_temperature;BME280_humidity;BME280_pressure;Samples;Min_cycle;Max_cycle;Signal;HPM_P1;HPM_P2
2023/11/12 00:01:21;;;;;;;12.73;6.97;;;7.80;99.90;;;;;;5012889;28;20121;-71
2023/11/12 00:03:49;;;;;;;10.47;6.80;;;7.90;99.90;;;;;;5012309;28;20042;-71
2023/11/12 00:06:15;;;;;;;11.27;7.10;;;7.80;99.90;;;;;;5012437;28;20046;-71
2023/11/12 00:08:41;;;;;;;10.93;7.17;;;7.80;99.90;;;;;;5012436;28;20030;-71
2023/11/12 00:11:07;;;;;;;12.83;7.97;;;7.80;99.90;;;;;;5015924;28;20060;-70
2023/11/12 00:13:33;;;;;;;9.73;7.40;;;7.80;99.90;;;;;;5015632;28;20073;-71
2023/11/12 00:15:59;;;;;;;10.60;7.90;;;7.80;99.90;;;;;;5015900;28;20037;-71
2023/11/12 00:18:25;;;;;;;10.40;6.77;;;7.80;99.90;;;;;;5015642;28;20037;-71
2023/11/12 00:20:51;;;;;;;11.03;7.13;;;7.80;99.90;;;;;;5016454;28;20049;-71
2023/11/12 00:23:18;;;;;;;7.83;5.27;;;7.80;99.90;;;;;;5015840;28;20092;-70
2023/11/12 00:25:44;;;;;;;13.93;7.53;;;7.80;99.90;;;;;;5015310;28;20100;-71
2023/11/12 00:28:09;;;;;;;12.83;8.03;;;7.80;99.90;;;;;;5015436;28;20482;-71
2023/11/12 00:30:35;;;;;;;14.93;6.80;;;7.80;99.90;;;;;;5015239;28;20042;-70
2023/11/12 00:33:01;;;;;;;15.20;7.70;;;7.80;99.90;;;;;;5015328;28;20077;-71
2023/11/12 00:35:27;;;;;;;10.93;7.20;;;7.80;99.90;;;;;;5015501;28;20038;-71
2023/11/12 00:37:53;;;;;;;13.67;7.70;;;7.80;99.90;;;;;;5015409;28;20101;-71
2023/11/12 00:40:19;;;;;;;13.60;7.83;;;7.70;99.90;;;;;;5015095;28;20034;-71
2023/11/12 00:42:45;;;;;;;15.47;7.37;;;7.70;99.90;;;;;;5015337;28;20026;-71
2023/11/12 00:45:11;;;;;;;11.17;6.33;;;7.70;99.90;;;;;;4997737;28;20045;-71
2023/11/12 00:47:36;;;;;;;15.13;7.27;;;7.70;99.90;;;;;;5015178;28;20062;-70
2023/11/12 00:50:03;;;;;;;13.33;7.37;;;7.60;99.90;;;;;;5015162;28;20045;-70
2023/11/12 00:52:29;;;;;;;16.30;7.60;;;7.60;99.90;;;;;;5015079;28;20026;-71
2023/11/12 00:54:55;;;;;;;11.70;8.17;;;7.70;99.90;;;;;;5015289;28;20110;-70
2023/11/12 00:57:20;;;;;;;10.93;8.00;;;7.70;99.90;;;;;;5015069;28;20034;-71
2023/11/12 00:59:46;;;;;;;15.03;7.90;;;7.60;99.90;;;;;;5015169;28;20053;-70
2023/11/12 01:02:15;;;;;;;10.97;7.53;;;7.60;99.90;;;;;;5015081;28;20026;-70
2023/11/12 01:04:41;;;;;;;12.13;8.10;;;7.50;99.90;;;;;;5015739;28;20026;-71
2023/11/12 01:07:07;;;;;;;14.90;8.43;;;7.50;99.90;;;;;;5015710;28;20026;-70
2023/11/12 01:09:34;;;;;;;11.67;7.93;;;7.50;99.90;;;;;;5015653;28;20044;-71
2023/11/12 01:12:04;;;;;;;12.07;7.37;;;7.50;99.90;;;;;;4997412;28;20050;-70
2023/11/12 01:14:30;;;;;;;14.37;8.00;;;7.40;99.90;;;;;;5015120;28;20033;-70
2023/11/12 01:16:58;;;;;;;12.33;7.43;;;7.40;99.90;;;;;;5015464;28;20038;-70
2023/11/12 01:19:25;;;;;;;11.20;7.10;;;7.40;99.90;;;;;;5015141;28;20030;-70
2023/11/12 01:21:50;;;;;;;15.70;7.43;;;7.40;99.90;;;;;;5014250;28;20034;-71
2023/11/12 01:24:22;;;;;;;11.83;6.13;;;7.30;99.90;;;;;;4997550;28;20041;-70
2023/11/12 01:26:51;;;;;;;11.23;6.93;;;7.40;99.90;;;;;;5015030;28;20030;-71
2023/11/12 01:29:17;;;;;;;10.07;6.90;;;7.30;99.90;;;;;;5014892;28;20105;-70
2023/11/12 01:31:46;;;;;;;12.50;5.97;;;7.30;99.90;;;;;;5014937;28;20498;-70
2023/11/12 01:34:14;;;;;;;9.87;5.60;;;7.30;99.90;;;;;;5014597;28;20045;-70
2023/11/12 01:36:40;;;;;;;9.23;5.50;;;7.30;99.90;;;;;;5014324;28;20038;-71
2023/11/12 01:39:08;;;;;;;10.73;5.70;;;7.30;99.90;;;;;;5014797;28;20034;-70
2023/11/12 01:41:34;;;;;;;8.63;6.00;;;7.30;99.90;;;;;;5014842;28;20030;-71
2023/11/12 01:44:01;;;;;;;8.47;5.37;;;7.20;99.90;;;;;;4997001;28;20505;-71
2023/11/12 01:46:27;;;;;;;9.07;5.53;;;7.20;99.90;;;;;;5014381;28;20025;-71
2023/11/12 01:48:57;;;;;;;9.20;5.37;;;7.20;99.90;;;;;;5014098;28;20450;-71
2023/11/12 01:51:25;;;;;;;7.73;4.73;;;7.20;99.90;;;;;;5014264;28;20042;-71
2023/11/12 01:53:52;;;;;;;8.37;5.10;;;7.20;99.90;;;;;;5014098;28;20378;-71
2023/11/12 01:56:21;;;;;;;8.17;4.77;;;7.10;99.90;;;;;;5014013;28;21127;-71
2023/11/12 01:58:52;;;;;;;7.57;4.87;;;7.20;99.90;;;;;;5012039;28;20048;-71
2023/11/12 02:01:19;;;;;;;9.97;5.00;;;7.10;99.90;;;;;;4993521;28;20045;-70
2023/11/12 02:03:46;;;;;;;8.03;4.70;;;7.10;99.90;;;;;;5011104;28;20513;-70
2023/11/12 02:06:12;;;;;;;6.47;3.70;;;7.10;99.90;;;;;;5013403;28;20038;-71
2023/11/12 02:08:42;;;;;;;5.93;4.20;;;7.10;99.90;;;;;;5013706;28;20394;-70
2023/11/12 02:11:09;;;;;;;6.03;4.30;;;7.10;99.90;;;;;;5013635;28;20048;-70
2023/11/12 02:13:41;;;;;;;7.50;4.57;;;7.10;99.90;;;;;;5013292;28;20472;-71
2023/11/12 02:16:07;;;;;;;5.55;3.78;;;7.10;99.90;;;;;;5013319;28;20123;-70
2023/11/12 02:18:33;;;;;;;6.10;3.80;;;7.10;99.90;;;;;;5013235;28;20062;-71
2023/11/12 02:20:59;;;;;;;11.97;3.73;;;7.10;99.90;;;;;;5013163;28;20042;-71
2023/11/12 02:23:24;;;;;;;6.47;3.70;;;7.10;99.90;;;;;;5013347;28;20041;-71
2023/11/12 02:25:51;;;;;;;6.83;4.20;;;7.10;99.90;;;;;;4995704;28;20088;-71
2023/11/12 02:28:18;;;;;;;5.83;4.00;;;7.10;99.90;;;;;;5012619;28;20092;-71
2023/11/12 02:30:45;;;;;;;6.67;4.13;;;7.10;99.90;;;;;;5013178;28;20470;-71
2023/11/12 02:33:11;;;;;;;5.70;3.83;;;7.10;99.90;;;;;;4994828;28;20038;-71
2023/11/12 02:35:42;;;;;;;6.07;3.93;;;7.10;99.90;;;;;;5012781;28;20108;-71
2023/11/12 02:38:10;;;;;;;6.30;4.17;;;7.10;99.90;;;;;;5013060;28;20029;-71
2023/11/12 02:40:37;;;;;;;6.87;3.80;;;7.00;99.90;;;;;;5013312;28;20056;-72
2023/11/12 02:43:03;;;;;;;13.43;5.30;;;7.00;99.90;;;;;;5012552;28;20076;-71
2023/11/12 02:45:29;;;;;;;7.13;4.60;;;7.00;99.90;;;;;;5013265;28;20034;-72
2023/11/12 02:47:56;;;;;;;8.60;4.30;;;7.00;99.90;;;;;;4995988;28;20512;-71
2023/11/12 02:50:30;;;;;;;8.53;3.80;;;6.90;99.90;;;;;;5013169;28;20030;-70
2023/11/12 02:53:00;;;;;;;6.63;3.63;;;6.90;99.90;;;;;;5013491;28;20046;-70
2023/11/12 02:55:30;;;;;;;13.63;4.17;;;6.90;99.90;;;;;;5013328;28;20038;-71
2023/11/12 02:57:58;;;;;;;9.67;4.07;;;6.90;99.90;;;;;;5013611;28;20061;-70
2023/11/12 03:00:27;;;;;;;7.77;4.30;;;6.90;99.90;;;;;;5013359;28;20045;-69
2023/11/12 03:02:54;;;;;;;5.37;3.70;;;6.80;99.90;;;;;;5013263;28;20054;-70
2023/11/12 03:05:24;;;;;;;7.90;4.07;;;6.80;99.90;;;;;;5013251;28;20030;-70
2023/11/12 03:07:50;;;;;;;16.13;5.63;;;6.80;99.90;;;;;;5012857;28;20034;-70
2023/11/12 03:10:20;;;;;;;7.77;3.73;;;6.80;99.90;;;;;;5012937;28;20030;-71
2023/11/12 03:12:52;;;;;;;5.57;3.80;;;6.70;99.90;;;;;;4995390;28;20100;-70
2023/11/12 03:15:18;;;;;;;5.80;3.25;;;6.70;99.90;;;;;;5005169;28;20026;-70
2023/11/12 03:17:45;;;;;;;4.90;3.30;;;6.80;99.90;;;;;;5012757;28;20088;-71
2023/11/12 03:20:14;;;;;;;5.27;3.43;;;6.70;99.90;;;;;;5012712;28;20113;-70
2023/11/12 03:22:40;;;;;;;6.30;3.73;;;6.70;99.90;;;;;;4995251;28;20507;-71
2023/11/12 03:25:06;;;;;;;7.50;3.63;;;6.70;99.90;;;;;;5013196;28;20026;-71
2023/11/12 03:27:42;;;;;;;5.63;3.43;;;6.70;99.90;;;;;;5013041;28;20030;-70
2023/11/12 03:30:12;;;;;;;5.23;3.47;;;6.60;99.90;;;;;;5014960;28;20030;-70
2023/11/12 03:32:38;;;;;;;4.80;3.30;;;6.70;99.90;;;;;;5032643;28;20030;-70
2023/11/12 03:35:06;;;;;;;4.43;3.20;;;6.60;99.90;;;;;;5032465;28;20041;-70
2023/11/12 03:37:32;;;;;;;4.87;3.17;;;6.70;99.90;;;;;;5032483;28;20052;-70
2023/11/12 03:39:58;;;;;;;4.37;2.67;;;6.60;99.90;;;;;;5032378;28;20478;-71
2023/11/12 03:42:24;;;;;;;6.97;2.97;;;6.70;99.90;;;;;;5032373;28;20036;-70
2023/11/12 03:44:50;;;;;;;4.80;3.50;;;6.60;99.90;;;;;;5016113;28;20033;-70
2023/11/12 03:47:16;;;;;;;9.17;3.03;;;6.60;99.90;;;;;;5035959;28;20029;-69
2023/11/12 03:49:42;;;;;;;5.27;2.90;;;6.60;99.90;;;;;;5018159;28;20041;-70
2023/11/12 03:52:09;;;;;;;3.30;2.40;;;6.50;99.90;;;;;;5017998;28;20061;-70
2023/11/12 03:54:36;;;;;;;4.17;2.47;;;6.50;99.90;;;;;;5035614;28;20509;-70
2023/11/12 03:57:03;;;;;;;5.53;3.03;;;6.50;99.90;;;;;;5035500;28;20076;-71
2023/11/12 03:59:29;;;;;;;6.57;2.53;;;6.50;99.90;;;;;;5035832;28;20451;-71
2023/11/12 04:01:54;;;;;;;4.30;2.77;;;6.50;99.90;;;;;;5035975;28;20148;-71
2023/11/12 04:04:20;;;;;;;4.83;2.47;;;6.50;99.90;;;;;;5035541;28;20029;-71
2023/11/12 04:06:46;;;;;;;4.93;2.73;;;6.50;99.90;;;;;;5017944;28;20041;-71
2023/11/12 04:09:12;;;;;;;4.00;2.77;;;6.60;99.90;;;;;;5036007;28;20029;-71
2023/11/12 04:11:40;;;;;;;5.13;2.53;;;6.50;99.90;;;;;;5035406;28;20069;-71
2023/11/12 04:14:07;;;;;;;3.50;2.90;;;6.50;99.90;;;;;;5035598;28;20495;-71
2023/11/12 04:16:34;;;;;;;4.80;2.97;;;6.60;99.90;;;;;;5035432;28;20080;-70
2023/11/12 04:19:02;;;;;;;3.50;2.87;;;6.60;99.90;;;;;;5035087;28;20037;-71
2023/11/12 04:21:31;;;;;;;6.50;2.83;;;6.50;99.90;;;;;;5035421;28;20434;-70
2023/11/12 04:23:58;;;;;;;4.00;2.67;;;6.50;99.90;;;;;;5035536;28;20474;-71
2023/11/12 04:26:24;;;;;;;3.57;2.53;;;6.50;99.90;;;;;;5035560;28;20033;-70
2023/11/12 04:28:50;;;;;;;4.33;2.67;;;6.50;99.90;;;;;;5035627;28;20034;-71
2023/11/12 04:31:16;;;;;;;5.33;3.03;;;6.50;99.90;;;;;;5035784;28;20052;-70
2023/11/12 04:33:42;;;;;;;4.10;3.07;;;6.50;99.90;;;;;;5035965;28;20038;-70
2023/11/12 04:36:08;;;;;;;4.60;2.77;;;6.40;99.90;;;;;;5035469;28;20512;-70
2023/11/12 04:38:34;;;;;;;4.40;3.00;;;6.40;99.90;;;;;;5035514;28;20076;-70
2023/11/12 04:40:59;;;;;;;3.93;2.97;;;6.40;99.90;;;;;;5035660;28;20037;-70
2023/11/12 04:43:25;;;;;;;10.17;3.00;;;6.40;99.90;;;;;;5035542;28;20038;-70
2023/11/12 04:45:54;;;;;;;5.97;3.30;;;6.40;99.90;;;;;;5017525;28;20173;-70
2023/11/12 04:48:24;;;;;;;2.83;2.40;;;6.40;99.90;;;;;;5035655;28;20037;-70
2023/11/12 04:50:50;;;;;;;6.17;2.70;;;6.40;99.90;;;;;;5035148;28;20159;-70
2023/11/12 04:53:16;;;;;;;5.30;3.27;;;6.40;99.90;;;;;;5035294;28;20068;-70
2023/11/12 04:55:42;;;;;;;4.57;3.30;;;6.40;99.90;;;;;;5034189;28;20087;-70
2023/11/12 04:58:08;;;;;;;7.27;3.17;;;6.40;99.90;;;;;;5035295;28;20120;-69
2023/11/12 05:00:40;;;;;;;6.17;2.93;;;6.40;99.90;;;;;;5035028;28;20101;-70
2023/11/12 05:03:07;;;;;;;6.97;3.30;;;6.40;99.90;;;;;;5035345;28;20040;-70
2023/11/12 05:05:33;;;;;;;5.10;2.97;;;6.40;99.90;;;;;;5035096;28;20275;-70
2023/11/12 05:07:59;;;;;;;4.83;3.00;;;6.40;99.90;;;;;;5035302;28;20123;-71
2023/11/12 05:10:26;;;;;;;4.10;2.60;;;6.40;99.90;;;;;;5034630;28;20034;-71
2023/11/12 05:12:51;;;;;;;7.03;2.50;;;6.40;99.90;;;;;;5034581;28;20188;-70
2023/11/12 05:15:17;;;;;;;3.67;2.50;;;6.40;99.90;;;;;;5016850;28;20045;-71
2023/11/12 05:17:43;;;;;;;6.53;2.23;;;6.40;99.90;;;;;;5034812;28;20038;-71
2023/11/12 05:20:10;;;;;;;3.33;2.23;;;6.50;99.90;;;;;;5034590;28;20041;-70
2023/11/12 05:22:37;;;;;;;4.83;2.30;;;6.50;99.90;;;;;;5034447;28;20367;-71
2023/11/12 05:25:03;;;;;;;5.60;2.53;;;6.50;99.90;;;;;;5016639;28;20038;-70
2023/11/12 05:27:29;;;;;;;5.97;2.10;;;6.50;99.90;;;;;;5034607;28;20044;-70
2023/11/12 05:29:55;;;;;;;5.07;2.60;;;6.40;99.90;;;;;;5016608;28;20034;-70
2023/11/12 05:32:21;;;;;;;3.27;2.33;;;6.40;99.90;;;;;;5034839;28;20100;-71
2023/11/12 05:34:47;;;;;;;5.30;2.80;;;6.40;99.90;;;;;;5034693;28;20029;-71
2023/11/12 05:37:13;;;;;;;6.33;3.03;;;6.40;99.90;;;;;;5034495;28;20044;-71
2023/11/12 05:39:38;;;;;;;4.30;2.40;;;6.40;99.90;;;;;;5034199;28;20140;-71
2023/11/12 05:42:04;;;;;;;3.73;2.57;;;6.40;99.90;;;;;;5034085;28;20037;-71
2023/11/12 05:44:30;;;;;;;5.07;2.47;;;6.40;99.90;;;;;;5034401;28;20038;-70
2023/11/12 05:46:56;;;;;;;5.03;2.67;;;6.40;99.90;;;;;;5033657;28;20516;-71
2023/11/12 05:49:22;;;;;;;5.67;2.73;;;6.50;99.90;;;;;;5033959;28;20037;-70
2023/11/12 05:51:47;;;;;;;5.80;2.60;;;6.50;99.90;;;;;;5033886;28;20053;-71
2023/11/12 05:54:13;;;;;;;6.07;2.40;;;6.50;99.90;;;;;;5034059;28;20084;-71
2023/11/12 05:56:39;;;;;;;4.33;2.43;;;6.60;99.90;;;;;;5033874;28;20037;-70
2023/11/12 05:59:05;;;;;;;6.30;2.40;;;6.70;99.90;;;;;;5033726;28;20039;-71
2023/11/12 06:01:30;;;;;;;3.13;2.07;;;6.70;99.90;;;;;;5034268;28;20079;-71
2023/11/12 06:03:58;;;;;;;4.10;2.07;;;6.70;99.90;;;;;;5033780;28;20036;-71
2023/11/12 06:06:25;;;;;;;4.67;2.53;;;6.80;99.90;;;;;;5033863;28;20477;-71
2023/11/12 06:08:51;;;;;;;5.97;2.33;;;6.80;99.90;;;;;;5015827;28;20193;-71
2023/11/12 06:11:17;;;;;;;7.90;2.23;;;6.80;99.90;;;;;;5033640;28;20128;-71
2023/11/12 06:13:43;;;;;;;3.97;2.07;;;6.90;99.90;;;;;;5034203;28;20068;-71
2023/11/12 06:16:08;;;;;;;4.70;1.97;;;6.80;99.90;;;;;;5034419;28;20044;-71
2023/11/12 06:18:34;;;;;;;4.13;2.53;;;6.80;99.90;;;;;;5034214;28;20033;-70
2023/11/12 06:21:00;;;;;;;5.50;2.90;;;6.80;99.90;;;;;;5034053;28;20160;-70
2023/11/12 06:23:26;;;;;;;6.80;2.57;;;6.70;99.90;;;;;;5033922;28;20065;-70
2023/11/12 06:25:52;;;;;;;4.60;2.30;;;6.70;99.90;;;;;;5033645;28;20034;-70
2023/11/12 06:28:20;;;;;;;4.67;2.47;;;6.60;99.90;;;;;;5033572;28;20025;-70
2023/11/12 06:30:46;;;;;;;4.50;2.90;;;6.60;99.90;;;;;;5033868;28;20087;-70
2023/11/12 06:33:12;;;;;;;3.70;2.80;;;6.60;99.90;;;;;;5034039;28;20037;-70
2023/11/12 06:35:38;;;;;;;5.83;2.43;;;6.50;99.90;;;;;;5033688;28;20474;-70
2023/11/12 06:38:04;;;;;;;5.03;2.03;;;6.50;99.90;;;;;;5015672;28;20029;-70
2023/11/12 06:40:32;;;;;;;4.17;2.20;;;6.50;99.90;;;;;;5033623;28;20482;-70
2023/11/12 06:42:58;;;;;;;3.23;2.30;;;6.50;99.90;;;;;;5033547;28;20041;-70
2023/11/12 06:45:24;;;;;;;2.17;1.80;;;6.50;99.90;;;;;;5033340;28;20034;-68
2023/11/12 06:47:50;;;;;;;4.33;2.07;;;6.50;99.90;;;;;;5033162;28;20072;-70
2023/11/12 06:50:16;;;;;;;4.20;2.50;;;6.50;99.90;;;;;;5032963;28;20454;-71
2023/11/12 06:52:45;;;;;;;6.97;2.50;;;6.50;99.90;;;;;;5015271;28;20184;-70
2023/11/12 06:55:14;;;;;;;2.80;2.27;;;6.50;99.90;;;;;;5032938;28;20057;-70
2023/11/12 06:57:41;;;;;;;11.17;2.60;;;6.50;99.90;;;;;;5033231;28;20394;-70
2023/11/12 07:00:08;;;;;;;3.47;2.30;;;6.60;99.90;;;;;;5033050;28;20037;-71
2023/11/12 07:02:37;;;;;;;4.73;2.60;;;6.60;99.90;;;;;;5032716;28;20032;-71
2023/11/12 07:05:04;;;;;;;4.37;2.67;;;6.70;99.90;;;;;;5032861;28;20034;-71
2023/11/12 07:07:34;;;;;;;4.77;2.50;;;6.70;99.90;;;;;;5033212;28;20033;-69
2023/11/12 07:10:00;;;;;;;3.13;2.43;;;6.70;99.90;;;;;;5032820;28;20109;-71
2023/11/12 07:12:26;;;;;;;5.33;2.90;;;6.70;99.90;;;;;;5031988;28;20132;-71
2023/11/12 07:17:17;;;;;;;4.40;2.80;;;6.90;99.90;;;;;;5030705;28;20056;-70
2023/11/12 07:19:43;;;;;;;3.13;2.60;;;6.90;99.90;;;;;;5018227;28;20576;-70
2023/11/12 07:22:10;;;;;;;4.67;2.87;;;6.90;99.90;;;;;;5021440;28;20382;-70
2023/11/12 07:24:36;;;;;;;3.57;2.90;;;7.00;99.90;;;;;;5039314;28;20559;-71
2023/11/12 07:27:03;;;;;;;6.50;3.33;;;7.00;99.90;;;;;;5039275;28;20095;-70
2023/11/12 07:29:29;;;;;;;5.57;3.10;;;7.00;99.90;;;;;;5038972;28;20436;-71
2023/11/12 07:31:55;;;;;;;4.70;3.63;;;7.00;99.90;;;;;;5021179;28;20442;-71
2023/11/12 07:34:22;;;;;;;4.87;3.50;;;7.10;99.90;;;;;;5020946;28;20125;-70
2023/11/12 07:36:48;;;;;;;7.67;3.30;;;7.10;99.90;;;;;;5038875;28;20120;-70
2023/11/12 07:39:14;;;;;;;8.70;3.47;;;7.10;99.90;;;;;;5038887;28;20033;-71
2023/11/12 07:41:40;;;;;;;4.63;3.40;;;7.20;99.90;;;;;;5038791;28;20037;-68
2023/11/12 07:44:06;;;;;;;4.87;3.53;;;7.20;99.90;;;;;;5021204;28;20164;-71
2023/11/12 07:46:32;;;;;;;4.40;3.23;;;7.20;99.90;;;;;;5038996;28;20091;-71
2023/11/12 07:48:58;;;;;;;5.13;3.50;;;7.20;99.90;;;;;;5038551;28;20030;-70
2023/11/12 07:51:24;;;;;;;5.37;3.80;;;7.30;99.90;;;;;;5038603;28;20055;-72
2023/11/12 07:53:53;;;;;;;6.20;3.97;;;7.30;99.90;;;;;;5020772;28;20037;-68
2023/11/12 07:56:20;;;;;;;4.27;3.43;;;7.30;99.90;;;;;;5038817;28;20486;-71
2023/11/12 07:58:46;;;;;;;7.37;3.73;;;7.30;99.90;;;;;;5039324;28;20445;-70
2023/11/12 08:01:12;;;;;;;5.70;3.53;;;7.40;99.90;;;;;;5021971;28;20042;-69
2023/11/12 08:03:38;;;;;;;7.37;3.73;;;7.40;99.90;;;;;;5039657;28;20490;-70
2023/11/12 08:06:05;;;;;;;6.77;4.13;;;7.50;99.90;;;;;;5039191;28;20117;-69
2023/11/12 08:08:31;;;;;;;9.43;3.70;;;7.60;99.90;;;;;;5038967;28;20030;-71
2023/11/12 08:11:00;;;;;;;9.07;4.10;;;7.60;99.90;;;;;;5039102;28;20389;-71
2023/11/12 08:13:30;;;;;;;8.37;4.17;;;7.70;99.90;;;;;;5039021;28;20068;-69
2023/11/12 08:15:58;;;;;;;7.93;4.80;;;7.80;99.90;;;;;;5038638;28;20033;-70
2023/11/12 08:18:25;;;;;;;5.30;4.00;;;7.90;99.90;;;;;;5038555;28;20502;-70
2023/11/12 08:20:54;;;;;;;6.43;3.77;;;8.00;99.90;;;;;;5039000;28;20029;-69
2023/11/12 08:23:21;;;;;;;5.80;4.00;;;8.10;99.90;;;;;;5039203;28;20029;-69
2023/11/12 08:25:47;;;;;;;6.27;3.13;;;8.10;99.90;;;;;;5039041;28;20029;-69
2023/11/12 08:28:13;;;;;;;5.00;3.50;;;8.20;99.90;;;;;;5038922;28;20038;-69
2023/11/12 08:30:42;;;;;;;8.57;3.77;;;8.20;99.90;;;;;;5037681;28;20490;-70
2023/11/12 08:33:08;;;;;;;6.00;3.73;;;8.30;99.90;;;;;;5035599;28;20037;-70
2023/11/12 08:35:36;;;;;;;8.10;5.30;;;8.40;99.90;;;;;;5035908;28;20441;-70
2023/11/12 08:38:08;;;;;;;5.87;4.37;;;8.40;99.90;;;;;;5035416;28;20069;-69
2023/11/12 08:40:39;;;;;;;7.78;5.60;;;8.50;99.90;;;;;;5035476;28;20049;-70
2023/11/12 08:43:05;;;;;;;6.30;4.30;;;8.50;99.90;;;;;;5017728;28;20440;-70
2023/11/12 08:45:31;;;;;;;6.60;3.73;;;8.60;99.90;;;;;;5035352;28;20490;-69
2023/11/12 08:47:57;;;;;;;7.47;3.10;;;8.60;99.90;;;;;;5015973;28;20041;-69
2023/11/12 08:50:23;;;;;;;4.00;2.10;;;8.70;99.90;;;;;;5034346;28;20048;-69
2023/11/12 08:52:49;;;;;;;2.53;1.87;;;8.70;99.90;;;;;;5034675;28;20481;-70
2023/11/12 08:55:19;;;;;;;3.60;2.10;;;8.80;99.90;;;;;;5034103;28;20037;-70
2023/11/12 08:57:44;;;;;;;3.53;2.13;;;8.80;99.90;;;;;;5016229;28;20406;-70
2023/11/12 09:00:11;;;;;;;2.50;1.70;;;8.80;99.90;;;;;;5032019;28;20042;-70
2023/11/12 09:02:37;;;;;;;5.17;1.90;;;8.90;99.90;;;;;;5031793;28;20124;-71
2023/11/12 09:05:04;;;;;;;4.03;2.70;;;8.90;99.90;;;;;;5033070;28;20049;-71
2023/11/12 09:07:30;;;;;;;5.00;2.30;;;8.90;99.90;;;;;;5034514;28;20116;-71
2023/11/12 09:09:56;;;;;;;4.13;2.50;;;9.00;99.90;;;;;;5034466;28;20032;-70
2023/11/12 09:12:22;;;;;;;5.73;2.30;;;9.00;99.90;;;;;;5034208;28;20058;-69
2023/11/12 09:14:49;;;;;;;2.60;1.83;;;9.00;99.90;;;;;;5034321;28;20421;-70
2023/11/12 09:17:15;;;;;;;6.53;2.60;;;9.10;99.90;;;;;;5035947;28;20025;-69
2023/11/12 09:19:43;;;;;;;3.53;2.23;;;9.10;99.90;;;;;;5034083;28;20033;-70
2023/11/12 09:22:09;;;;;;;6.03;2.23;;;9.10;99.90;;;;;;5034151;28;20087;-69
2023/11/12 09:24:35;;;;;;;6.93;2.47;;;9.10;99.90;;;;;;5033522;28;20025;-70
2023/11/12 09:27:01;;;;;;;4.17;2.37;;;9.20;99.90;;;;;;5033583;28;20036;-70
2023/11/12 09:29:28;;;;;;;4.60;2.57;;;9.10;99.90;;;;;;5032709;28;20037;-70
2023/11/12 09:31:54;;;;;;;5.97;2.77;;;9.20;99.90;;;;;;5014912;28;20056;-70
2023/11/12 09:34:20;;;;;;;4.50;2.73;;;9.20;99.90;;;;;;5032838;28;20033;-71
2023/11/12 09:36:45;;;;;;;6.03;2.73;;;9.20;99.90;;;;;;5034092;28;20079;-70
2023/11/12 09:39:13;;;;;;;5.90;2.90;;;9.20;99.90;;;;;;5033406;28;20076;-70
2023/11/12 09:41:46;;;;;;;5.43;3.37;;;9.30;99.90;;;;;;5034346;28;20033;-69
2023/11/12 09:44:17;;;;;;;5.53;2.70;;;9.30;99.90;;;;;;5018977;28;20045;-69
2023/11/12 09:46:54;;;;;;;11.60;2.47;;;9.30;99.90;;;;;;5014811;28;20034;-69
2023/11/12 09:49:22;;;;;;;8.63;4.87;;;9.30;99.90;;;;;;5014886;28;20119;-69
2023/11/12 09:51:49;;;;;;;4.63;3.43;;;9.30;99.90;;;;;;5014465;28;20038;-70
2023/11/12 09:54:16;;;;;;;6.43;2.30;;;9.40;99.90;;;;;;5014317;28;20408;-70
2023/11/12 09:56:45;;;;;;;3.93;2.17;;;9.40;99.90;;;;;;5012250;28;20045;-69
2023/11/12 09:59:11;;;;;;;6.47;2.27;;;9.40;99.90;;;;;;5011992;28;20514;-69
2023/11/12 10:01:37;;;;;;;4.53;2.40;;;9.40;99.90;;;;;;5012880;28;20113;-69
2023/11/12 10:04:09;;;;;;;5.33;2.53;;;9.40;99.90;;;;;;5014060;28;20114;-70
2023/11/12 10:06:38;;;;;;;3.03;2.17;;;9.50;99.90;;;;;;5014237;28;20049;-70
2023/11/12 10:09:09;;;;;;;5.30;2.10;;;9.50;99.90;;;;;;5014648;28;20065;-70
2023/11/12 10:11:36;;;;;;;5.80;2.40;;;9.50;99.90;;;;;;5023028;23;20069;-69
2023/11/12 10:14:09;;;;;;;3.17;1.87;;;9.50;99.90;;;;;;5012585;28;20038;-69
2023/11/12 10:16:38;;;;;;;4.35;2.05;;;9.60;99.90;;;;;;5012218;28;20032;-69
2023/11/12 10:19:10;;;;;;;4.40;2.00;;;9.60;99.90;;;;;;5012372;28;20034;-70
2023/11/12 10:21:55;;;;;;;4.28;2.53;;;9.70;99.90;;;;;;5012700;28;20034;-69
2023/11/12 10:24:23;;;;;;;4.33;2.27;;;9.70;99.90;;;;;;5012597;28;20030;-69
2023/11/12 10:26:49;;;;;;;5.30;2.20;;;9.80;99.90;;;;;;5012854;28;20113;-69
2023/11/12 10:29:22;;;;;;;8.53;2.30;;;9.80;99.90;;;;;;5013747;28;20034;-69
2023/11/12 10:31:48;;;;;;;3.43;2.40;;;9.80;99.90;;;;;;5013417;28;20440;-70
2023/11/12 10:34:16;;;;;;;6.63;2.33;;;9.80;99.90;;;;;;5013499;28;20049;-70
2023/11/12 10:37:07;;;;;;;4.03;2.40;;;9.90;99.90;;;;;;5013789;28;20060;-71
2023/11/12 10:39:41;;;;;;;5.07;2.67;;;9.90;99.90;;;;;;5003621;28;20041;-69
2023/11/12 10:42:26;;;;;;;5.50;2.63;;;9.90;99.90;;;;;;5011227;28;20033;-72
2023/11/12 10:44:58;;;;;;;8.17;2.93;;;9.90;99.90;;;;;;5012136;28;20048;-72
2023/11/12 10:47:32;;;;;;;5.13;2.33;;;10.00;99.90;;;;;;5013459;28;20113;-71
2023/11/12 10:49:59;;;;;;;6.47;2.50;;;10.00;99.90;;;;;;5009433;28;20505;-72
2023/11/12 10:52:28;;;;;;;5.57;2.47;;;10.00;99.90;;;;;;5013487;28;20050;-72
2023/11/12 10:54:59;;;;;;;10.30;3.27;;;10.10;99.90;;;;;;5012435;28;20175;-71
2023/11/12 10:57:26;;;;;;;6.93;2.70;;;10.10;99.90;;;;;;5005144;28;20102;-72
2023/11/12 10:59:53;;;;;;;5.50;2.90;;;10.20;99.90;;;;;;5013267;28;20497;-72
2023/11/12 11:02:21;;;;;;;7.22;2.45;;;10.20;99.90;;;;;;5013001;28;20041;-72
2023/11/12 11:04:48;;;;;;;3.90;2.50;;;10.30;99.90;;;;;;5007833;28;20041;-69
2023/11/12 11:07:15;;;;;;;6.87;2.40;;;10.40;99.90;;;;;;5013060;28;20034;-72
2023/11/12 11:09:42;;;;;;;4.47;2.35;;;10.50;99.90;;;;;;5012865;28;20034;-71
2023/11/12 11:12:09;;;;;;;5.23;2.47;;;10.50;99.90;;;;;;5012747;28;20073;-72
2023/11/12 11:14:35;;;;;;;4.93;2.40;;;10.60;99.90;;;;;;5013130;28;20034;-72
2023/11/12 11:17:05;;;;;;;4.75;2.30;;;10.70;99.90;;;;;;5012394;28;20044;-72
2023/11/12 11:19:43;;;;;;;3.88;2.13;;;10.70;99.90;;;;;;5004649;28;20065;-72
2023/11/12 11:22:32;;;;;;;5.30;2.08;;;10.80;99.90;;;;;;5012707;28;20089;-72
2023/11/12 11:25:16;;;;;;;5.88;2.40;;;10.80;99.90;;;;;;5012824;28;20478;-71
2023/11/12 11:27:46;;;;;;;7.15;2.53;;;10.90;99.90;;;;;;5012664;28;20478;-71
2023/11/12 11:30:14;;;;;;;4.63;2.50;;;10.90;99.90;;;;;;5012508;28;20442;-70
2023/11/12 11:32:52;;;;;;;5.85;3.00;;;11.00;99.90;;;;;;5012735;28;20052;-70
2023/11/12 11:35:18;;;;;;;7.03;2.30;;;11.00;99.90;;;;;;5004555;28;20124;-70
2023/11/12 11:38:06;;;;;;;6.50;2.42;;;11.10;99.90;;;;;;5012534;28;20482;-70
2023/11/12 11:40:32;;;;;;;6.40;2.28;;;11.20;99.90;;;;;;5012654;28;20088;-70
2023/11/12 11:43:23;;;;;;;5.45;2.40;;;11.30;99.90;;;;;;5013426;28;20034;-70
2023/11/12 11:46:08;;;;;;;6.55;2.55;;;11.50;99.90;;;;;;5013277;28;20058;-70
2023/11/12 11:48:34;;;;;;;8.43;2.78;;;11.60;99.90;;;;;;5013300;28;20085;-70
2023/11/12 11:51:00;;;;;;;4.55;2.20;;;11.80;99.90;;;;;;5013204;28;20486;-70
2023/11/12 11:53:28;;;;;;;7.53;2.25;;;12.00;99.90;;;;;;5013240;28;20045;-71
2023/11/12 11:56:10;;;;;;;3.67;1.90;;;12.00;99.90;;;;;;5013194;28;20038;-70
2023/11/12 11:58:48;;;;;;;5.80;2.20;;;12.10;99.90;;;;;;5011074;28;20100;-71
2023/11/12 12:01:14;;;;;;;7.07;1.80;;;12.10;99.90;;;;;;5009744;28;20036;-71
2023/11/12 12:03:42;;;;;;;6.18;2.20;;;12.10;99.90;;;;;;5012205;28;20121;-70
2023/11/12 12:06:21;;;;;;;5.20;2.15;;;12.10;99.90;;;;;;5015138;28;20088;-70
2023/11/12 12:08:52;;;;;;;4.72;2.33;;;12.10;99.90;;;;;;5016247;28;20034;-69
2023/11/12 12:11:24;;;;;;;7.07;2.20;;;12.10;99.90;;;;;;5015969;28;20053;-68
2023/11/12 12:14:05;;;;;;;3.97;2.10;;;12.10;99.90;;;;;;5016206;28;20045;-69
2023/11/12 12:16:35;;;;;;;6.97;2.70;;;12.10;99.90;;;;;;5016483;28;20038;-69
2023/11/12 12:19:08;;;;;;;4.47;2.30;;;12.10;99.90;;;;;;5016353;28;20084;-69
2023/11/12 12:21:36;;;;;;;3.92;2.47;;;12.10;99.90;;;;;;5014145;28;20053;-67
2023/11/12 12:24:06;;;;;;;6.20;2.40;;;12.10;99.90;;;;;;5013297;28;20081;-69
2023/11/12 12:26:32;;;;;;;6.78;2.22;;;12.10;99.90;;;;;;5013453;28;20069;-68
2023/11/12 12:28:59;;;;;;;7.70;2.40;;;12.10;99.90;;;;;;5015788;28;20061;-68
2023/11/12 12:31:28;;;;;;;3.80;2.33;;;12.10;99.90;;;;;;5015871;28;20092;-69
2023/11/12 12:34:01;;;;;;;5.25;2.47;;;12.10;99.90;;;;;;5015908;28;20363;-68
2023/11/12 12:36:27;;;;;;;9.85;3.65;;;12.10;99.90;;;;;;5015531;28;20034;-68
2023/11/12 12:39:09;;;;;;;4.75;2.85;;;12.20;99.90;;;;;;5015790;28;20049;-68
2023/11/12 12:41:36;;;;;;;;;;;12.20;99.90;;;;;;5013627;28;20449;-70
2023/11/12 12:44:02;;;;;;;6.10;2.63;;;12.20;99.90;;;;;;5012943;28;20309;-69
2023/11/12 12:46:45;;;;;;;7.45;2.95;;;12.10;99.90;;;;;;5013374;28;20048;-70
2023/11/12 12:49:17;;;;;;;4.75;2.88;;;12.10;99.90;;;;;;5015799;28;20041;-69
2023/11/12 12:51:50;;;;;;;5.03;2.75;;;12.10;99.90;;;;;;5015494;28;20038;-69
2023/11/12 12:54:19;;;;;;;7.43;3.20;;;12.10;99.90;;;;;;5015505;28;20053;-69
2023/11/12 12:56:48;;;;;;;5.03;2.90;;;12.00;99.90;;;;;;5009737;28;20538;-69
2023/11/12 12:59:17;;;;;;;5.97;3.28;;;12.00;99.90;;;;;;5015494;28;20037;-69